Terminal Aerodrome Forecast
Issued by NWS

Home | Current Version | Previous Version | Text Only | Print | Product List | Glossary On
Versions: 1 2 3 4 5 6 7 8 9 10 11 12 13 14
000
FTUS44 KTSA 031721
TAFRVS
TAF
KRVS 031721Z 0318/0418 VRB03KT P6SM SCT020
     FM032000 VRB05KT P6SM VCTS SCT040CB
     FM040200 VRB02KT P6SM SCT250=

USA.gov is the U.S. government's official web portal to all federal, state and local government web resources and services.